createdAt,value
2019-03-08T00:02:32.891Z,99169.87
2019-03-08T00:05:36.399Z,99173.16
2019-03-08T00:08:39.928Z,99166.88
2019-03-08T00:11:43.405Z,99180.63
2019-03-08T00:14:46.938Z,99182.43
2019-03-08T00:17:50.418Z,99182.56
2019-03-08T00:20:53.917Z,99180.77
2019-03-08T00:23:57.473Z,99169.78
2019-03-08T00:27:01.130Z,99164.62
2019-03-08T00:30:05.841Z,99167.52
2019-03-08T00:33:09.341Z,99167.77
2019-03-08T00:36:12.851Z,99165.81
2019-03-08T00:39:16.335Z,99160.78
2019-03-08T00:42:19.875Z,99166.07
2019-03-08T00:45:23.353Z,99166.45
2019-03-08T00:48:26.889Z,99170.05
2019-03-08T00:51:30.359Z,99172.70
2019-03-08T00:54:33.899Z,99177.64
2019-03-08T00:57:37.312Z,99168.03
2019-03-08T01:00:41.148Z,99172.98
2019-03-08T01:03:44.754Z,99168.03
2019-03-08T01:06:48.271Z,99168.03
2019-03-08T01:09:51.970Z,99165.38
2019-03-08T01:12:55.466Z,99158.89
2019-03-08T01:15:58.966Z,99152.39
2019-03-08T01:19:02.562Z,99145.77
2019-03-08T01:22:06.172Z,99137.48
2019-03-08T01:25:09.848Z,99126.17
2019-03-08T01:28:14.331Z,99131.47
2019-03-08T01:31:18.938Z,99139.75
2019-03-08T01:34:22.421Z,99137.48
2019-03-08T01:37:25.930Z,99135.91
2019-03-08T01:40:29.440Z,99134.12
2019-03-08T01:43:32.921Z,99133.77
2019-03-08T01:46:36.451Z,99135.09
2019-03-08T01:49:40.013Z,99121.86
2019-03-08T01:52:43.436Z,99126.39
2019-03-08T01:55:47.990Z,99116.21
2019-03-08T01:58:51.474Z,99110.51
2019-03-08T02:01:56.027Z,99115.80
2019-03-08T02:04:59.460Z,99107.52
2019-03-08T02:08:08.795Z,99103.55
2019-03-08T02:11:12.463Z,99103.55
2019-03-08T02:14:16.961Z,99105.00
2019-03-08T02:17:20.658Z,99095.59
2019-03-08T02:20:24.158Z,99096.92
2019-03-08T02:23:27.660Z,99093.55
2019-03-08T02:26:32.177Z,99086.94
2019-03-08T02:29:36.710Z,99089.45
2019-03-08T02:32:43.319Z,99087.91
2019-03-08T02:35:46.802Z,99082.27
2019-03-08T02:38:51.372Z,99085.27
2019-03-08T02:41:54.824Z,99095.52
2019-03-08T02:44:58.333Z,99095.00
2019-03-08T02:48:01.814Z,99092.99
2019-03-08T02:51:07.401Z,99090.00
2019-03-08T02:54:10.858Z,99077.23
2019-03-08T02:57:14.699Z,99074.25
2019-03-08T03:00:20.382Z,99074.25
2019-03-08T03:03:25.869Z,99067.97
2019-03-08T03:06:29.332Z,99072.55
2019-03-08T03:09:33.908Z,99076.89
2019-03-08T03:12:37.462Z,99074.25
2019-03-08T03:15:43.056Z,99066.43
2019-03-08T03:18:46.553Z,99069.89
2019-03-08T03:21:50.147Z,99072.67
2019-03-08T03:24:53.699Z,99070.53
2019-03-08T03:27:57.178Z,99063.53
2019-03-08T03:31:00.693Z,99065.84
2019-03-08T03:34:04.156Z,99081.59
2019-03-08T03:37:07.659Z,99073.09
2019-03-08T03:40:11.529Z,99074.76
2019-03-08T03:43:16.163Z,99090.30
2019-03-08T03:46:19.848Z,99079.71
2019-03-08T03:49:29.248Z,99084.02
2019-03-08T03:52:32.741Z,99090.64
2019-03-08T03:55:37.247Z,99092.44
2019-03-08T03:58:40.795Z,99104.00
2019-03-08T04:01:48.063Z,99099.91
2019-03-08T04:04:51.661Z,99110.16
2019-03-08T04:07:55.173Z,99106.52
2019-03-08T04:10:58.730Z,99104.35
2019-03-08T04:14:02.207Z,99103.66
2019-03-08T04:17:06.810Z,99101.48
2019-03-08T04:20:11.795Z,99105.80
2019-03-08T04:23:15.330Z,99099.69
2019-03-08T04:26:18.824Z,99098.84
2019-03-08T04:29:23.410Z,99102.81
2019-03-08T04:32:27.881Z,99087.53
2019-03-08T04:35:31.483Z,99098.84
2019-03-08T04:38:35.228Z,99097.52
2019-03-08T04:41:38.824Z,99103.41
2019-03-08T04:44:43.577Z,99106.05
2019-03-08T04:47:47.029Z,99103.28
2019-03-08T04:50:50.514Z,99102.47
2019-03-08T04:53:55.057Z,99102.59
2019-03-08T04:56:58.582Z,99095.59
2019-03-08T05:00:02.073Z,99108.36
2019-03-08T05:03:05.573Z,99114.28
2019-03-08T05:06:09.075Z,99113.31
2019-03-08T05:09:12.578Z,99111.64
2019-03-08T05:12:16.058Z,99112.11
2019-03-08T05:15:19.546Z,99119.58
2019-03-08T05:18:23.057Z,99111.64
2019-03-08T05:21:26.574Z,99103.31
2019-03-08T05:24:31.089Z,99104.30
2019-03-08T05:27:35.601Z,99108.14
2019-03-08T05:30:39.136Z,99110.91
2019-03-08T05:33:44.660Z,99110.19
2019-03-08T05:36:48.166Z,99114.88
2019-03-08T05:39:51.650Z,99123.80
2019-03-08T05:42:55.162Z,99117.19
2019-03-08T05:45:58.722Z,99122.48
2019-03-08T05:49:02.152Z,99132.34
2019-03-08T05:52:05.933Z,99125.59
2019-03-08T05:55:09.413Z,99154.23
2019-03-08T05:58:12.884Z,99135.71
2019-03-08T06:01:32.539Z,99143.66
2019-03-08T06:04:37.080Z,99151.09
2019-03-08T06:07:40.534Z,99144.47
2019-03-08T06:10:44.020Z,99153.86
2019-03-08T06:13:47.709Z,99166.75
2019-03-08T06:16:51.170Z,99165.77
2019-03-08T06:19:55.596Z,99164.83
2019-03-08T06:23:01.170Z,99170.25
2019-03-08T06:26:04.663Z,99176.02
2019-03-08T06:29:08.164Z,99174.69
2019-03-08T06:32:11.598Z,99190.09
2019-03-08T06:35:15.056Z,99199.83
2019-03-08T06:38:18.680Z,99217.38
2019-03-08T06:41:22.164Z,99215.59
2019-03-08T06:44:25.661Z,99219.21
2019-03-08T06:47:30.163Z,99227.62
2019-03-08T06:50:33.596Z,99223.66
2019-03-08T06:53:37.119Z,99232.44
2019-03-08T06:56:40.649Z,99244.36
2019-03-08T06:59:51.581Z,99238.20
2019-03-08T07:02:55.174Z,99247.82
2019-03-08T07:05:59.802Z,99251.44
2019-03-08T07:09:04.111Z,99248.45
2019-03-08T07:12:07.611Z,99251.09
2019-03-08T07:15:11.110Z,99267.45
2019-03-08T07:18:14.615Z,99260.36
2019-03-08T07:21:43.027Z,99274.06
2019-03-08T07:24:53.705Z,99275.89
2019-03-08T07:28:22.065Z,99279.01
2019-03-08T07:31:40.308Z,99297.53
2019-03-08T07:34:55.778Z,99301.97
2019-03-08T07:38:17.078Z,99303.68
2019-03-08T07:41:34.257Z,99303.68
2019-03-08T07:44:48.865Z,99312.95
2019-03-08T07:48:11.540Z,99308.59
2019-03-08T07:51:29.443Z,99323.88
2019-03-08T07:55:07.266Z,99323.25
2019-03-08T07:58:20.400Z,99322.44
2019-03-08T08:01:35.363Z,99333.25
2019-03-08T08:05:10.272Z,99333.25
2019-03-08T08:08:21.264Z,99353.95
2019-03-08T08:11:33.002Z,99357.65
2019-03-08T08:14:55.676Z,99371.73
2019-03-08T08:18:17.038Z,99378.36
2019-03-08T08:21:38.279Z,99381.35
2019-03-08T08:25:06.333Z,99385.45
2019-03-08T08:28:50.097Z,99397.97
2019-03-08T08:32:05.047Z,99409.88
2019-03-08T08:35:23.607Z,99417.36
2019-03-08T08:38:45.232Z,99428.77
2019-03-08T08:41:55.305Z,99431.41
2019-03-08T08:45:33.269Z,99441.65
2019-03-08T08:48:43.870Z,99440.09
2019-03-08T08:52:13.578Z,99434.79
2019-03-08T08:55:34.591Z,99446.23
2019-03-08T08:58:45.903Z,99449.59
2019-03-08T09:02:11.419Z,99441.77
2019-03-08T09:05:34.083Z,99457.41
2019-03-08T09:09:08.818Z,99468.34
2019-03-08T09:12:25.786Z,99463.17
2019-03-08T09:15:33.933Z,99460.41
2019-03-08T09:19:00.938Z,99481.97
2019-03-08T09:22:16.335Z,99470.41
2019-03-08T09:25:27.196Z,99466.08
2019-03-08T09:28:52.919Z,99486.64
2019-03-08T09:32:07.689Z,99478.35
2019-03-08T09:35:31.250Z,99490.15
2019-03-08T09:38:49.702Z,99496.30
2019-03-08T09:42:19.928Z,99505.91
2019-03-08T09:45:47.270Z,99505.91
2019-03-08T09:49:07.289Z,99511.21
2019-03-08T09:52:21.854Z,99527.57
2019-03-08T09:55:30.164Z,99538.39
2019-03-08T09:58:59.555Z,99546.72
2019-03-08T10:02:09.542Z,99549.48
2019-03-08T10:05:27.181Z,99546.95
2019-03-08T10:08:41.014Z,99564.52
2019-03-08T10:11:58.323Z,99563.67
2019-03-08T10:15:19.664Z,99573.20
2019-03-08T10:18:33.216Z,99571.49
2019-03-08T10:21:48.563Z,99573.20
2019-03-08T10:25:11.623Z,99576.09
2019-03-08T10:28:49.552Z,99582.09
2019-03-08T10:32:12.040Z,99588.70
2019-03-08T10:35:33.414Z,99594.00
2019-03-08T10:38:43.038Z,99595.21
2019-03-08T10:42:14.283Z,99595.09
2019-03-08T10:45:33.971Z,99604.36
2019-03-08T10:48:47.618Z,99595.71
2019-03-08T10:52:17.367Z,99603.04
2019-03-08T10:55:33.665Z,99616.28
2019-03-08T10:58:55.223Z,99606.81
2019-03-08T11:02:05.715Z,99610.78
2019-03-08T11:05:32.272Z,99625.34
2019-03-08T11:08:41.988Z,99605.48
2019-03-08T11:12:04.825Z,99623.67
2019-03-08T11:15:28.545Z,99625.34
2019-03-08T11:18:53.426Z,99632.70
2019-03-08T11:22:34.387Z,99641.86
2019-03-08T11:25:55.311Z,99643.30
2019-03-08T11:29:22.772Z,99650.51
2019-03-08T11:32:36.729Z,99649.53
2019-03-08T11:35:46.189Z,99664.72
2019-03-08T11:39:09.747Z,99683.34
2019-03-08T11:42:35.339Z,99689.52
2019-03-08T11:45:51.257Z,99680.61
2019-03-08T11:49:04.899Z,99692.17
2019-03-08T11:52:28.175Z,99692.02
2019-03-08T11:55:41.290Z,99698.17
2019-03-08T11:59:03.259Z,99693.73
2019-03-08T12:02:25.080Z,99701.56
2019-03-08T12:05:47.576Z,99696.27
2019-03-08T12:09:02.818Z,99706.02
2019-03-08T12:12:35.319Z,99709.52
2019-03-08T12:15:57.899Z,99711.77
2019-03-08T12:19:06.514Z,99715.52
2019-03-08T12:22:27.640Z,99711.94
2019-03-08T12:25:40.968Z,99707.58
2019-03-08T12:29:12.632Z,99711.19
2019-03-08T12:32:34.211Z,99719.99
2019-03-08T12:35:47.193Z,99729.38
2019-03-08T12:39:07.667Z,99722.75
2019-03-08T12:42:36.015Z,99720.46
2019-03-08T12:46:01.468Z,99712.88
2019-03-08T12:49:23.035Z,99741.18
2019-03-08T12:52:47.395Z,99747.53
2019-03-08T12:56:06.074Z,99754.42
2019-03-08T12:59:19.093Z,99750.56
2019-03-08T13:02:43.648Z,99756.96
2019-03-08T13:06:06.208Z,99754.31
2019-03-08T13:09:23.202Z,99759.61
2019-03-08T13:12:26.721Z,99764.91
2019-03-08T13:15:31.225Z,99757.31
2019-03-08T13:18:34.721Z,99756.70
2019-03-08T13:21:38.231Z,99761.17
2019-03-08T13:24:41.747Z,99766.36
2019-03-08T13:27:45.253Z,99773.34
2019-03-08T13:30:51.820Z,99756.12
2019-03-08T13:33:55.511Z,99751.92
2019-03-08T13:36:59.027Z,99760.11
2019-03-08T13:40:02.643Z,99777.80
2019-03-08T13:43:06.250Z,99792.98
2019-03-08T13:46:09.731Z,99794.90
2019-03-08T13:49:15.283Z,99794.66
2019-03-08T13:52:23.075Z,99797.19
2019-03-08T13:55:26.599Z,99800.94
2019-03-08T13:58:30.086Z,99800.94
2019-03-08T14:01:35.602Z,99807.09
2019-03-08T14:04:40.150Z,99808.42
2019-03-08T14:07:43.704Z,99816.25
2019-03-08T14:10:47.169Z,99819.73
2019-03-08T14:13:50.661Z,99821.44
2019-03-08T14:16:54.171Z,99818.41
2019-03-08T14:19:57.664Z,99821.80
2019-03-08T14:23:02.384Z,99820.83
2019-03-08T14:26:06.035Z,99827.67
2019-03-08T14:29:11.379Z,99833.36
2019-03-08T14:32:21.111Z,99828.42
2019-03-08T14:35:26.110Z,99827.09
2019-03-08T14:38:36.910Z,99839.98
2019-03-08T14:41:44.850Z,99844.67
2019-03-08T14:44:57.227Z,99852.16
2019-03-08T14:48:01.453Z,99858.27
2019-03-08T14:51:09.430Z,99856.95
2019-03-08T14:54:12.235Z,99852.51
2019-03-08T14:57:26.896Z,99858.27
2019-03-08T15:00:25.369Z,99860.45
2019-03-08T15:03:43.012Z,99858.44
2019-03-08T15:06:38.719Z,99863.84
2019-03-08T15:09:43.443Z,99865.53
2019-03-08T15:12:49.068Z,99873.95
2019-03-08T15:15:52.126Z,99895.37
2019-03-08T15:18:56.608Z,99901.64
2019-03-08T15:22:00.101Z,99903.70
2019-03-08T15:25:08.344Z,99918.64
2019-03-08T15:28:11.620Z,99932.24
2019-03-08T15:31:15.127Z,99947.67
2019-03-08T15:34:21.352Z,99964.89
2019-03-08T15:37:24.787Z,99986.78
2019-03-08T15:40:28.302Z,99992.72
2019-03-08T15:43:31.794Z,99984.88
2019-03-08T15:46:35.295Z,99970.09
2019-03-08T15:49:50.074Z,99962.03
2019-03-08T15:52:53.753Z,99958.49
2019-03-08T15:55:57.284Z,99954.77
2019-03-08T15:59:03.440Z,99956.34
2019-03-08T16:02:08.927Z,99966.11
2019-03-08T16:05:13.661Z,99966.11
2019-03-08T16:08:17.223Z,99965.36
2019-03-08T16:11:20.713Z,99974.89
2019-03-08T16:14:24.207Z,99982.02
2019-03-08T16:17:27.723Z,99988.13
2019-03-08T16:20:31.216Z,99991.06
2019-03-08T16:23:34.716Z,99993.72
2019-03-08T16:26:38.445Z,99988.77
2019-03-08T16:29:43.842Z,99997.19
2019-03-08T16:33:04.822Z,100002.59
2019-03-08T16:36:27.820Z,100006.97
2019-03-08T16:39:53.229Z,100012.27
2019-03-08T16:43:14.627Z,100017.06
2019-03-08T16:46:24.731Z,100019.72
2019-03-08T16:49:48.175Z,100034.69
2019-03-08T16:52:57.963Z,100033.72
2019-03-08T16:56:31.506Z,100042.42
2019-03-08T16:59:52.984Z,100034.58
2019-03-08T17:03:06.936Z,100025.66
2019-03-08T17:06:35.885Z,100032.64
2019-03-08T17:10:13.610Z,100051.94
2019-03-08T17:13:28.609Z,100051.19
2019-03-08T17:16:54.277Z,100057.93
2019-03-08T17:20:11.576Z,100063.87
2019-03-08T17:23:44.132Z,100069.39
2019-03-08T17:26:58.461Z,100084.82
2019-03-08T17:30:14.564Z,100084.82
2019-03-08T17:33:51.493Z,100098.18
2019-03-08T17:37:12.252Z,100102.16
2019-03-08T17:40:27.952Z,100108.67
2019-03-08T17:43:41.795Z,100108.78
2019-03-08T17:46:59.341Z,100107.34
2019-03-08T17:50:15.973Z,100107.81
2019-03-08T17:53:37.664Z,100111.53
2019-03-08T17:57:02.779Z,100112.65
2019-03-08T18:00:23.729Z,100116.48
2019-03-08T18:04:01.587Z,100121.06
2019-03-08T18:07:16.676Z,100117.45
2019-03-08T18:10:34.803Z,100122.75
2019-03-08T18:13:49.273Z,100123.72
2019-03-08T18:17:24.164Z,100125.41
2019-03-08T18:20:40.818Z,100136.36
2019-03-08T18:23:57.225Z,100140.47
2019-03-08T18:27:20.898Z,100137.22
2019-03-08T18:30:58.928Z,100143.59
2019-03-08T18:34:20.069Z,100159.28
2019-03-08T18:37:41.543Z,100161.08
2019-03-08T18:40:59.582Z,100159.75
2019-03-08T18:44:13.120Z,100157.95
2019-03-08T18:47:26.259Z,100173.86
2019-03-08T18:50:41.725Z,100173.25
2019-03-08T18:54:04.377Z,100178.09
2019-03-08T18:57:19.055Z,100182.17
2019-03-08T19:00:45.418Z,100180.84
2019-03-08T19:04:06.498Z,100178.66
2019-03-08T19:07:26.988Z,100179.52
2019-03-08T19:10:42.988Z,100176.88
2019-03-08T19:13:54.082Z,100181.70
2019-03-08T19:17:22.823Z,100191.81
2019-03-08T19:20:47.193Z,100202.05
2019-03-08T19:24:05.050Z,100205.66
2019-03-08T19:27:25.725Z,100212.19
2019-03-08T19:30:38.289Z,100215.30
2019-03-08T19:33:52.349Z,100222.69
2019-03-08T19:37:12.343Z,100217.38
2019-03-08T19:40:23.935Z,100214.84
2019-03-08T19:43:41.591Z,100216.42
2019-03-08T19:47:03.173Z,100215.09
2019-03-08T19:50:25.480Z,100214.73
2019-03-08T19:53:47.331Z,100215.09
2019-03-08T19:57:09.921Z,100219.43
2019-03-08T20:00:25.459Z,100221.15
2019-03-08T20:03:34.706Z,100215.09
2019-03-08T20:06:55.804Z,100219.43
2019-03-08T20:10:27.469Z,100214.23
2019-03-08T20:14:05.244Z,100217.17
2019-03-08T20:17:27.613Z,100219.22
2019-03-08T20:20:49.132Z,100214.52
2019-03-08T20:24:14.581Z,100216.57
2019-03-08T20:27:44.636Z,100211.63
2019-03-08T20:31:00.765Z,100207.90
2019-03-08T20:34:17.033Z,100214.13
2019-03-08T20:37:51.721Z,100213.56
2019-03-08T20:41:12.987Z,100205.97
2019-03-08T20:44:27.320Z,100205.61
2019-03-08T20:47:32.364Z,100207.90
2019-03-08T20:50:36.246Z,100208.72
2019-03-08T20:53:39.750Z,100209.22
2019-03-08T20:56:43.251Z,100211.22
2019-03-08T20:59:47.794Z,100220.03
2019-03-08T21:02:51.261Z,100220.60
2019-03-08T21:05:54.663Z,100222.50
2019-03-08T21:08:58.270Z,100216.27
2019-03-08T21:12:01.786Z,100224.33
2019-03-08T21:15:07.247Z,100222.50
2019-03-08T21:18:10.847Z,100226.22
2019-03-08T21:21:14.260Z,100230.30
2019-03-08T21:24:17.735Z,100223.77
2019-03-08T21:27:21.334Z,100228.25
2019-03-08T21:30:24.974Z,100226.53
2019-03-08T21:33:28.533Z,100225.80
2019-03-08T21:36:32.038Z,100223.05
2019-03-08T21:39:35.563Z,100230.74
2019-03-08T21:42:41.103Z,100224.33
2019-03-08T21:45:44.592Z,100221.28
2019-03-08T21:48:48.109Z,100219.02
2019-03-08T21:51:51.593Z,100223.00
2019-03-08T21:54:55.111Z,100219.95
2019-03-08T21:57:58.578Z,100222.84
2019-03-08T22:01:02.219Z,100223.57
2019-03-08T22:04:14.505Z,100230.80
2019-03-08T22:07:17.919Z,100233.44
2019-03-08T22:10:38.385Z,100231.72
2019-03-08T22:13:41.816Z,100224.73
2019-03-08T22:16:45.399Z,100217.36
2019-03-08T22:19:48.925Z,100221.72
2019-03-08T22:22:52.424Z,100216.53
2019-03-08T22:25:56.306Z,100213.02
2019-03-08T22:29:00.829Z,100207.36
2019-03-08T22:32:04.235Z,100198.19
2019-03-08T22:35:07.856Z,100204.71
2019-03-08T22:38:11.381Z,100194.68
2019-03-08T22:41:14.846Z,100187.09
2019-03-08T22:44:18.347Z,100190.45
2019-03-08T22:47:21.849Z,100185.25
2019-03-08T22:50:25.349Z,100187.33
2019-03-08T22:53:28.859Z,100172.97
2019-03-08T22:56:32.367Z,100154.03
2019-03-08T22:59:36.903Z,100153.67
2019-03-08T23:02:40.403Z,100161.98
2019-03-08T23:05:44.102Z,100170.42
2019-03-08T23:08:48.628Z,100174.86
2019-03-08T23:11:52.122Z,100169.20
2019-03-08T23:14:55.645Z,100166.55
2019-03-08T23:17:59.129Z,100161.83
2019-03-08T23:21:02.629Z,100158.71
2019-03-08T23:24:06.131Z,100158.81
2019-03-08T23:27:34.653Z,100160.50
2019-03-08T23:30:38.522Z,100147.00
2019-03-08T23:33:42.032Z,100144.81
2019-03-08T23:36:45.526Z,100143.02
2019-03-08T23:39:49.044Z,100130.25
2019-03-08T23:42:52.539Z,100132.53
2019-03-08T23:45:57.982Z,100134.22
2019-03-08T23:49:02.618Z,100121.94
2019-03-08T23:52:06.511Z,100119.89
2019-03-08T23:55:10.192Z,100110.63
2019-03-08T23:58:13.741Z,100109.30
